createdAt,value
2018-10-17T00:02:27.452Z,40.90
2018-10-17T00:05:51.996Z,42.27
2018-10-17T00:08:20.332Z,39.70
2018-10-17T00:10:48.696Z,41.83
2018-10-17T00:13:17.745Z,41.77
2018-10-17T00:15:46.180Z,42.10
2018-10-17T00:18:14.530Z,39.60
2018-10-17T00:20:42.857Z,39.90
2018-10-17T00:23:11.274Z,37.97
2018-10-17T00:25:42.700Z,40.30
2018-10-17T00:28:11.071Z,41.33
2018-10-17T00:30:40.460Z,38.50
2018-10-17T00:33:08.824Z,40.93
2018-10-17T00:35:37.192Z,41.10
2018-10-17T00:38:06.764Z,39.00
2018-10-17T00:40:35.201Z,41.00
2018-10-17T00:43:03.545Z,42.83
2018-10-17T00:45:31.873Z,43.37
2018-10-17T00:48:00.259Z,40.33
2018-10-17T00:50:28.587Z,39.50
2018-10-17T00:52:57.053Z,41.37
2018-10-17T00:55:25.307Z,39.87
2018-10-17T00:57:53.653Z,40.10
2018-10-17T01:00:22.213Z,39.60
2018-10-17T01:02:50.574Z,40.87
2018-10-17T01:05:19.911Z,40.07
2018-10-17T01:07:48.313Z,40.00
2018-10-17T01:10:16.708Z,39.67
2018-10-17T01:12:45.100Z,35.30
2018-10-17T01:15:13.516Z,40.03
2018-10-17T01:17:42.363Z,39.13
2018-10-17T01:20:10.825Z,40.77
2018-10-17T01:22:39.445Z,41.43
2018-10-17T01:25:07.982Z,38.60
2018-10-17T01:27:36.321Z,42.10
2018-10-17T01:30:05.310Z,38.97
2018-10-17T01:32:33.701Z,40.60
2018-10-17T01:35:02.147Z,40.80
2018-10-17T01:37:31.769Z,39.43
2018-10-17T01:40:00.126Z,39.40
2018-10-17T01:42:28.501Z,39.97
2018-10-17T01:44:57.053Z,37.97
2018-10-17T01:47:25.418Z,41.13
2018-10-17T01:49:54.858Z,37.70
2018-10-17T01:52:23.253Z,39.10
2018-10-17T01:54:51.621Z,38.40
2018-10-17T01:57:19.972Z,39.70
2018-10-17T01:59:49.365Z,38.17
2018-10-17T02:02:17.752Z,41.63
2018-10-17T02:04:46.113Z,38.47
2018-10-17T02:07:14.707Z,40.90
2018-10-17T02:09:43.001Z,40.40
2018-10-17T02:12:11.407Z,39.23
2018-10-17T02:14:39.822Z,35.90
2018-10-17T02:17:08.275Z,40.40
2018-10-17T02:19:36.624Z,39.20
2018-10-17T02:22:05.096Z,38.37
2018-10-17T02:24:33.485Z,42.37
2018-10-17T02:27:02.888Z,41.10
2018-10-17T02:29:31.264Z,42.37
2018-10-17T02:31:59.626Z,42.50
2018-10-17T02:34:27.957Z,45.43
2018-10-17T02:36:56.308Z,38.33
2018-10-17T02:39:24.696Z,45.10
2018-10-17T02:41:53.028Z,41.07
2018-10-17T02:44:22.476Z,40.03
2018-10-17T02:46:50.821Z,40.27
2018-10-17T02:49:20.239Z,46.47
2018-10-17T02:51:48.601Z,45.33
2018-10-17T02:54:16.961Z,41.40
2018-10-17T02:56:45.286Z,46.80
2018-10-17T02:59:13.687Z,45.27
2018-10-17T03:01:42.092Z,45.00
2018-10-17T03:04:14.905Z,46.53
2018-10-17T03:06:43.250Z,45.70
2018-10-17T03:09:11.636Z,49.20
2018-10-17T03:11:39.989Z,48.30
2018-10-17T03:14:08.367Z,48.67
2018-10-17T03:16:36.813Z,48.73
2018-10-17T03:19:05.508Z,46.47
2018-10-17T03:21:33.842Z,49.90
2018-10-17T03:24:02.180Z,45.97
2018-10-17T03:26:30.504Z,47.97
2018-10-17T03:28:58.913Z,51.73
2018-10-17T03:31:27.376Z,47.87
2018-10-17T03:33:55.592Z,51.90
2018-10-17T03:36:23.930Z,51.23
2018-10-17T03:38:54.398Z,52.07
2018-10-17T03:41:23.856Z,46.60
2018-10-17T03:43:52.250Z,51.37
2018-10-17T03:46:20.623Z,50.23
2018-10-17T03:48:49.012Z,50.13
2018-10-17T03:51:18.586Z,49.30
2018-10-17T03:53:46.939Z,59.08
2018-10-17T03:56:15.285Z,51.60
2018-10-17T03:58:43.636Z,53.10
2018-10-17T04:01:12.059Z,49.30
2018-10-17T04:03:40.326Z,50.70
2018-10-17T04:06:08.693Z,49.10
2018-10-17T04:08:37.064Z,49.50
2018-10-17T04:11:05.833Z,50.27
2018-10-17T04:13:34.110Z,50.07
2018-10-17T04:16:02.479Z,52.50
2018-10-17T04:18:31.932Z,51.30
2018-10-17T04:21:00.305Z,53.23
2018-10-17T04:23:28.690Z,53.63
2018-10-17T04:25:57.082Z,54.00
2018-10-17T04:28:31.424Z,53.60
2018-10-17T04:30:59.790Z,54.67
2018-10-17T04:33:28.157Z,50.33
2018-10-17T04:35:56.525Z,51.90
2018-10-17T04:38:24.901Z,51.83
2018-10-17T04:40:53.292Z,57.07
2018-10-17T04:43:24.488Z,54.43
2018-10-17T04:45:55.120Z,56.43
2018-10-17T04:48:24.529Z,58.30
2018-10-17T04:50:54.134Z,55.67
2018-10-17T04:53:22.505Z,52.80
2018-10-17T04:59:02.240Z,54.87
2018-10-17T05:01:30.502Z,53.67
2018-10-17T05:03:58.877Z,55.33
2018-10-17T05:06:27.237Z,51.60
2018-10-17T05:08:55.625Z,52.60
2018-10-17T05:12:49.501Z,56.90
2018-10-17T05:15:17.896Z,56.33
2018-10-17T05:17:46.223Z,54.67
2018-10-17T05:20:14.561Z,53.20
2018-10-17T05:22:42.896Z,54.50
2018-10-17T05:25:11.240Z,53.27
2018-10-17T05:27:39.548Z,56.03
2018-10-17T05:30:08.024Z,55.20
2018-10-17T05:32:36.348Z,55.97
2018-10-17T05:35:05.175Z,56.47
2018-10-17T05:37:33.586Z,53.33
2018-10-17T05:40:01.857Z,54.87
2018-10-17T05:42:30.245Z,56.20
2018-10-17T05:44:58.646Z,59.63
2018-10-17T05:47:27.000Z,56.90
2018-10-17T05:49:55.348Z,58.40
2018-10-17T05:52:23.700Z,61.80
2018-10-17T05:54:52.071Z,56.90
2018-10-17T05:57:20.445Z,55.97
2018-10-17T05:59:48.819Z,60.80
2018-10-17T06:02:22.461Z,56.37
2018-10-17T06:04:51.013Z,61.30
2018-10-17T06:07:19.375Z,55.77
2018-10-17T06:09:47.864Z,55.70
2018-10-17T06:12:17.439Z,61.37
2018-10-17T06:14:45.768Z,59.53
2018-10-17T06:17:17.501Z,59.47
2018-10-17T06:19:46.985Z,64.23
2018-10-17T06:22:15.367Z,59.00
2018-10-17T06:24:43.732Z,57.33
2018-10-17T06:27:12.248Z,54.30
2018-10-17T06:29:40.765Z,58.93
2018-10-17T06:32:09.160Z,55.93
2018-10-17T06:34:37.897Z,57.40
2018-10-17T06:37:07.657Z,56.17
2018-10-17T06:39:36.724Z,53.80
2018-10-17T06:42:05.696Z,56.43
2018-10-17T06:44:34.042Z,54.30
2018-10-17T06:47:02.437Z,54.07
2018-10-17T06:49:30.771Z,52.30
2018-10-17T06:51:59.137Z,51.00
2018-10-17T06:54:27.727Z,50.67
2018-10-17T06:56:56.041Z,52.70
2018-10-17T06:59:24.419Z,52.77
2018-10-17T07:01:53.223Z,51.93
2018-10-17T07:04:21.602Z,53.33
2018-10-17T07:06:50.085Z,52.90
2018-10-17T07:09:18.452Z,53.00
2018-10-17T07:11:46.852Z,48.03
2018-10-17T07:14:15.197Z,54.03
2018-10-17T07:16:43.636Z,51.23
2018-10-17T07:19:13.189Z,50.87
2018-10-17T07:21:41.445Z,50.37
2018-10-17T07:24:10.809Z,47.90
2018-10-17T07:26:39.184Z,47.43
2018-10-17T07:29:07.642Z,47.40
2018-10-17T07:31:36.998Z,43.87
2018-10-17T07:34:05.407Z,46.20
2018-10-17T07:36:33.859Z,46.20
2018-10-17T07:39:03.725Z,47.07
2018-10-17T07:41:32.130Z,49.40
2018-10-17T07:44:00.484Z,48.17
2018-10-17T07:46:29.460Z,48.90
2018-10-17T07:48:58.921Z,50.20
2018-10-17T07:51:28.309Z,45.03
2018-10-17T07:53:57.775Z,45.20
2018-10-17T07:56:26.161Z,45.67
2018-10-17T07:58:56.540Z,42.73
2018-10-17T08:01:25.905Z,45.63
2018-10-17T08:03:58.624Z,44.53
2018-10-17T08:06:27.437Z,45.70
2018-10-17T08:08:56.781Z,44.87
2018-10-17T08:11:26.194Z,39.77
2018-10-17T08:13:54.577Z,42.83
2018-10-17T08:16:22.921Z,41.20
2018-10-17T08:18:51.283Z,41.30
2018-10-17T08:21:21.030Z,41.40
2018-10-17T08:23:49.399Z,42.43
2018-10-17T08:26:17.754Z,39.10
2018-10-17T08:28:47.195Z,42.07
2018-10-17T08:31:15.569Z,41.40
2018-10-17T08:33:43.932Z,39.60
2018-10-17T08:36:12.631Z,41.13
2018-10-17T08:38:40.685Z,41.30
2018-10-17T08:41:09.144Z,39.80
2018-10-17T08:43:39.313Z,39.23
2018-10-17T08:46:07.708Z,38.30
2018-10-17T08:48:38.125Z,39.87
2018-10-17T08:51:06.535Z,40.70
2018-10-17T08:53:34.877Z,40.20
2018-10-17T08:56:03.254Z,37.13
2018-10-17T08:58:31.609Z,39.20
2018-10-17T09:00:59.981Z,40.77
2018-10-17T09:03:28.328Z,39.73
2018-10-17T09:05:57.719Z,41.10
2018-10-17T09:08:26.114Z,38.33
2018-10-17T09:10:54.474Z,39.10
2018-10-17T09:13:22.851Z,40.33
2018-10-17T09:15:52.273Z,41.10
2018-10-17T09:18:20.657Z,40.13
2018-10-17T09:20:49.288Z,38.93
2018-10-17T09:23:17.293Z,38.73
2018-10-17T09:25:45.777Z,36.33
2018-10-17T09:28:15.108Z,39.37
2018-10-17T09:30:43.537Z,39.50
2018-10-17T09:33:11.976Z,37.43
2018-10-17T09:35:40.313Z,39.00
2018-10-17T09:38:08.691Z,39.57
2018-10-17T09:40:37.005Z,39.87
2018-10-17T09:43:05.621Z,38.27
2018-10-17T09:45:33.967Z,36.27
2018-10-17T09:48:02.375Z,37.30
2018-10-17T09:50:30.736Z,35.53
2018-10-17T09:52:59.169Z,36.53
2018-10-17T09:55:27.517Z,33.67
2018-10-17T09:57:55.917Z,34.03
2018-10-17T10:00:29.543Z,33.50
2018-10-17T10:02:59.605Z,33.20
2018-10-17T10:05:27.982Z,29.27
2018-10-17T10:07:56.352Z,30.30
2018-10-17T10:10:24.689Z,29.67
2018-10-17T10:12:53.034Z,30.20
2018-10-17T10:15:21.523Z,32.23
2018-10-17T10:17:49.829Z,29.10
2018-10-17T10:20:18.197Z,28.50
2018-10-17T10:24:12.291Z,27.67
2018-10-17T10:26:40.638Z,27.33
2018-10-17T10:29:09.090Z,25.30
2018-10-17T10:31:37.477Z,25.53
2018-10-17T10:34:06.061Z,23.80
2018-10-17T10:36:34.393Z,24.50
2018-10-17T10:39:02.888Z,23.27
2018-10-17T10:41:32.297Z,22.57
2018-10-17T10:44:00.807Z,20.23
2018-10-17T10:46:30.198Z,21.07
2018-10-17T10:48:58.727Z,22.17
2018-10-17T10:51:27.259Z,20.90
2018-10-17T10:53:55.710Z,21.13
2018-10-17T10:56:24.093Z,20.23
2018-10-17T10:58:52.710Z,18.30
2018-10-17T11:01:21.397Z,18.80
2018-10-17T11:03:49.734Z,17.40
2018-10-17T11:06:18.198Z,17.27
2018-10-17T11:08:46.809Z,16.53
2018-10-17T11:11:15.329Z,17.50
2018-10-17T11:13:44.868Z,16.80
2018-10-17T11:16:13.229Z,16.20
2018-10-17T11:18:41.667Z,15.67
2018-10-17T11:21:10.054Z,14.47
2018-10-17T11:23:38.524Z,13.17
2018-10-17T11:26:07.081Z,13.03
2018-10-17T11:28:35.449Z,12.80
2018-10-17T11:31:03.823Z,11.73
2018-10-17T11:33:32.193Z,12.37
2018-10-17T11:36:00.553Z,16.30
2018-10-17T11:38:28.897Z,17.17
2018-10-17T11:40:57.288Z,14.80
2018-10-17T11:43:25.645Z,13.30
2018-10-17T11:45:53.996Z,13.70
2018-10-17T11:48:22.364Z,12.90
2018-10-17T11:50:50.720Z,12.53
2018-10-17T11:53:19.093Z,12.07
2018-10-17T11:55:47.458Z,11.80
2018-10-17T11:58:15.821Z,10.87
2018-10-17T12:00:44.165Z,11.77
2018-10-17T12:03:12.640Z,11.83
2018-10-17T12:05:41.279Z,12.60
2018-10-17T12:08:09.331Z,12.20
2018-10-17T12:10:37.698Z,10.90
2018-10-17T12:13:09.102Z,10.03
2018-10-17T12:15:42.046Z,12.73
2018-10-17T12:18:10.720Z,10.83
2018-10-17T12:20:38.972Z,12.37
2018-10-17T12:23:07.356Z,11.97
2018-10-17T12:25:35.716Z,11.87
2018-10-17T12:28:04.214Z,14.00
2018-10-17T12:30:32.493Z,11.00
2018-10-17T12:33:00.884Z,11.50
2018-10-17T12:35:29.268Z,12.10
2018-10-17T12:37:57.600Z,11.00
2018-10-17T12:40:26.081Z,12.10
2018-10-17T12:50:02.468Z,10.37
2018-10-17T12:52:31.376Z,12.00
2018-10-17T12:54:59.655Z,12.40
2018-10-17T12:57:28.212Z,12.90
2018-10-17T12:59:57.780Z,14.50
2018-10-17T13:02:26.128Z,14.77
2018-10-17T13:04:54.518Z,12.97
2018-10-17T13:07:23.000Z,12.10
2018-10-17T13:09:51.349Z,12.10
2018-10-17T13:12:19.752Z,14.40
2018-10-17T13:14:48.203Z,12.47
2018-10-17T13:17:16.599Z,17.00
2018-10-17T13:19:45.188Z,16.40
2018-10-17T13:22:13.504Z,15.07
2018-10-17T13:24:41.994Z,12.97
2018-10-17T13:27:11.312Z,14.63
2018-10-17T13:29:39.645Z,14.20
2018-10-17T13:32:07.995Z,16.20
2018-10-17T13:34:36.647Z,16.37
2018-10-17T13:37:05.394Z,17.63
2018-10-17T13:39:33.695Z,17.80
2018-10-17T13:42:02.197Z,16.80
2018-10-17T13:44:30.453Z,14.80
2018-10-17T13:46:58.925Z,17.77
2018-10-17T13:49:27.414Z,16.37
2018-10-17T13:51:55.760Z,16.20
2018-10-17T13:54:24.084Z,15.50
2018-10-17T13:56:52.432Z,14.67
2018-10-17T13:59:21.052Z,15.17
2018-10-17T14:01:51.409Z,15.50
2018-10-17T14:04:19.809Z,15.10
2018-10-17T14:06:48.140Z,16.33
2018-10-17T14:09:16.543Z,15.50
2018-10-17T14:11:44.861Z,15.13
2018-10-17T14:14:13.202Z,15.97
2018-10-17T14:16:41.549Z,15.60
2018-10-17T14:19:09.930Z,15.10
2018-10-17T14:21:39.318Z,15.50
2018-10-17T14:24:07.723Z,16.30
2018-10-17T14:26:36.070Z,16.90
2018-10-17T14:29:04.454Z,17.70
2018-10-17T14:31:32.841Z,17.47
2018-10-17T14:34:01.218Z,17.47
2018-10-17T14:36:29.694Z,17.57
2018-10-17T14:38:58.054Z,14.93
2018-10-17T14:41:26.469Z,14.40
2018-10-17T14:43:54.809Z,15.53
2018-10-17T14:46:23.153Z,15.03
2018-10-17T14:48:51.525Z,16.97
2018-10-17T14:54:10.550Z,15.63
2018-10-17T14:56:38.834Z,13.23
2018-10-17T14:59:07.148Z,15.37
2018-10-17T15:01:35.612Z,13.90
2018-10-17T15:04:03.995Z,14.60
2018-10-17T15:06:32.453Z,14.43
2018-10-17T15:09:00.789Z,13.47
2018-10-17T15:11:29.104Z,15.43
2018-10-17T15:13:57.362Z,14.23
2018-10-17T15:16:25.670Z,16.10
2018-10-17T15:18:53.961Z,16.40
2018-10-17T15:21:22.250Z,16.97
2018-10-17T15:23:50.552Z,17.17
2018-10-17T15:26:18.897Z,18.03
2018-10-17T15:28:47.194Z,17.70
2018-10-17T15:31:15.495Z,17.90
2018-10-17T15:33:43.782Z,18.60
2018-10-17T15:36:12.092Z,16.47
2018-10-17T15:38:40.362Z,17.43
2018-10-17T15:41:08.646Z,18.13
2018-10-17T15:43:36.975Z,14.93
2018-10-17T15:46:05.906Z,17.57
2018-10-17T15:48:34.272Z,22.80
2018-10-17T15:51:02.580Z,26.73
2018-10-17T15:53:30.950Z,26.90
2018-10-17T15:55:59.185Z,17.50
2018-10-17T15:58:27.494Z,15.30
2018-10-17T16:00:55.857Z,16.30
2018-10-17T16:03:24.094Z,15.93
2018-10-17T16:05:52.467Z,15.53
2018-10-17T16:08:20.811Z,17.80
2018-10-17T16:10:49.087Z,21.40
2018-10-17T16:13:17.370Z,20.30
2018-10-17T16:15:45.657Z,23.50
2018-10-17T16:18:14.055Z,24.97
2018-10-17T16:20:43.322Z,24.10
2018-10-17T16:23:11.666Z,23.70
2018-10-17T16:25:39.930Z,22.07
2018-10-17T16:28:08.234Z,27.40
2018-10-17T16:30:36.681Z,24.67
2018-10-17T16:33:04.928Z,24.70
2018-10-17T16:35:33.233Z,30.07
2018-10-17T16:38:01.697Z,30.30
2018-10-17T16:40:29.954Z,30.60
2018-10-17T16:42:58.247Z,30.60
2018-10-17T16:45:26.526Z,31.87
2018-10-17T16:47:54.907Z,29.60
2018-10-17T16:50:23.326Z,34.87
2018-10-17T16:52:51.569Z,32.73
2018-10-17T16:55:21.970Z,33.67
2018-10-17T16:57:51.191Z,35.37
2018-10-17T17:00:19.626Z,33.33
2018-10-17T17:02:47.897Z,36.60
2018-10-17T17:05:16.243Z,38.70
2018-10-17T17:07:44.731Z,38.77
2018-10-17T17:10:14.010Z,41.77
2018-10-17T17:12:42.359Z,38.97
2018-10-17T17:15:11.049Z,40.23
2018-10-17T17:17:39.311Z,40.73
2018-10-17T17:20:09.342Z,40.80
2018-10-17T17:22:37.974Z,42.80
2018-10-17T17:25:06.737Z,41.97
2018-10-17T17:27:35.110Z,42.43
2018-10-17T17:30:03.518Z,47.33
2018-10-17T17:32:31.778Z,42.30
2018-10-17T17:35:00.110Z,44.37
2018-10-17T17:37:28.406Z,44.90
2018-10-17T17:39:56.726Z,44.00
2018-10-17T17:42:25.043Z,43.67
2018-10-17T17:44:53.359Z,45.83
2018-10-17T17:47:21.685Z,48.40
2018-10-17T17:49:49.995Z,47.83
2018-10-17T17:52:18.342Z,53.97
2018-10-17T17:54:46.736Z,50.27
2018-10-17T17:57:15.078Z,49.20
2018-10-17T17:59:43.386Z,50.10
2018-10-17T18:02:11.682Z,48.23
2018-10-17T18:04:39.990Z,52.30
2018-10-17T18:07:08.318Z,51.87
2018-10-17T18:09:36.623Z,53.73
2018-10-17T18:12:05.338Z,49.87
2018-10-17T18:14:33.642Z,54.50
2018-10-17T18:17:01.998Z,53.73
2018-10-17T18:19:30.302Z,51.43
2018-10-17T18:21:58.626Z,53.90
2018-10-17T18:24:26.913Z,54.63
2018-10-17T18:26:55.250Z,56.67
2018-10-17T18:29:23.545Z,54.13
2018-10-17T18:31:51.847Z,55.17
2018-10-17T18:34:20.326Z,55.10
2018-10-17T18:36:49.598Z,51.97
2018-10-17T18:39:17.902Z,52.47
2018-10-17T18:41:46.218Z,54.30
2018-10-17T18:44:14.550Z,57.13
2018-10-17T18:46:42.883Z,57.27
2018-10-17T18:49:11.197Z,56.40
2018-10-17T18:51:41.586Z,55.50
2018-10-17T18:54:10.802Z,56.07
2018-10-17T18:56:40.199Z,63.10
2018-10-17T18:59:08.502Z,56.83
2018-10-17T19:01:36.824Z,58.30
2018-10-17T19:04:05.606Z,57.77
2018-10-17T19:06:33.898Z,58.97
2018-10-17T19:09:02.267Z,57.90
2018-10-17T19:11:30.546Z,57.80
2018-10-17T19:13:59.014Z,61.30
2018-10-17T19:16:28.298Z,59.40
2018-10-17T19:18:56.583Z,60.80
2018-10-17T19:21:25.923Z,59.73
2018-10-17T19:23:54.223Z,58.33
2018-10-17T19:26:22.530Z,57.70
2018-10-17T19:28:50.963Z,56.73
2018-10-17T19:31:19.269Z,61.13
2018-10-17T19:33:47.598Z,63.20
2018-10-17T19:36:15.941Z,61.17
2018-10-17T19:38:44.234Z,65.27
2018-10-17T19:41:12.588Z,61.77
2018-10-17T19:43:40.882Z,59.77
2018-10-17T19:46:10.217Z,62.03
2018-10-17T19:48:38.631Z,60.60
2018-10-17T19:51:07.023Z,63.47
2018-10-17T19:53:35.238Z,62.47
2018-10-17T19:56:03.640Z,62.73
2018-10-17T19:58:32.002Z,62.40
2018-10-17T20:01:00.290Z,61.90
2018-10-17T20:03:29.634Z,76.85
2018-10-17T20:05:57.910Z,69.30
2018-10-17T20:08:26.221Z,64.53
2018-10-17T20:10:54.542Z,64.10
2018-10-17T20:13:22.846Z,62.90
2018-10-17T20:15:51.210Z,65.10
2018-10-17T20:18:19.546Z,63.60
2018-10-17T20:20:48.934Z,62.00
2018-10-17T20:23:19.263Z,69.67
2018-10-17T20:25:47.614Z,64.83
2018-10-17T20:28:15.938Z,63.80
2018-10-17T20:30:44.284Z,66.50
2018-10-17T20:33:12.651Z,68.93
2018-10-17T20:35:40.918Z,65.50
2018-10-17T20:38:09.200Z,66.70
2018-10-17T20:40:37.613Z,66.50
2018-10-17T20:43:05.935Z,70.10
2018-10-17T20:45:34.245Z,66.33
2018-10-17T20:48:02.638Z,68.63
2018-10-17T20:50:30.913Z,68.30
2018-10-17T20:52:59.198Z,69.70
2018-10-17T20:55:27.515Z,74.83
2018-10-17T20:57:55.855Z,72.90
2018-10-17T21:00:24.113Z,74.67
2018-10-17T21:02:52.397Z,74.60
2018-10-17T21:05:20.705Z,76.10
2018-10-17T21:07:49.006Z,74.47
2018-10-17T21:10:17.278Z,77.17
2018-10-17T21:12:47.648Z,75.53
2018-10-17T21:15:17.038Z,75.30
2018-10-17T21:17:45.386Z,75.67
2018-10-17T21:20:13.779Z,82.03
2018-10-17T21:22:42.059Z,78.03
2018-10-17T21:25:10.355Z,80.37
2018-10-17T21:27:38.722Z,76.63
2018-10-17T21:30:08.251Z,77.40
2018-10-17T21:32:36.578Z,77.00
2018-10-17T21:35:06.538Z,74.60
2018-10-17T21:37:35.246Z,78.67
2018-10-17T21:40:03.717Z,71.93
2018-10-17T21:42:32.083Z,71.73
2018-10-17T21:45:00.474Z,68.60
2018-10-17T21:47:28.886Z,68.67
2018-10-17T21:49:57.143Z,66.43
2018-10-17T21:52:25.565Z,66.53
2018-10-17T21:54:53.933Z,67.17
2018-10-17T21:57:22.226Z,60.70
2018-10-17T21:59:50.558Z,66.40
2018-10-17T22:02:18.890Z,67.77
2018-10-17T22:04:47.184Z,64.20
2018-10-17T22:07:15.522Z,59.17
2018-10-17T22:09:43.851Z,62.90
2018-10-17T22:12:12.110Z,59.30
2018-10-17T22:14:40.570Z,59.20
2018-10-17T22:17:08.853Z,61.47
2018-10-17T22:19:38.120Z,61.23
2018-10-17T22:22:07.070Z,57.10
2018-10-17T22:24:35.366Z,62.00
2018-10-17T22:27:03.881Z,60.03
2018-10-17T22:29:32.200Z,56.70
2018-10-17T22:32:00.512Z,56.97
2018-10-17T22:34:28.819Z,61.03
2018-10-17T22:36:57.099Z,61.43
2018-10-17T22:39:26.089Z,61.33
2018-10-17T22:41:54.434Z,59.80
2018-10-17T22:44:23.950Z,62.90
2018-10-17T22:46:52.245Z,53.97
2018-10-17T22:49:20.594Z,58.40
2018-10-17T22:51:49.944Z,58.10
2018-10-17T22:54:18.252Z,55.73
2018-10-17T22:56:46.538Z,61.07
2018-10-17T22:59:14.830Z,58.03
2018-10-17T23:01:43.145Z,56.83
2018-10-17T23:04:12.457Z,55.60
2018-10-17T23:06:40.748Z,50.90
2018-10-17T23:09:13.552Z,54.73
2018-10-17T23:11:42.527Z,57.10
2018-10-17T23:14:11.212Z,55.20
2018-10-17T23:16:40.701Z,55.23
2018-10-17T23:19:10.011Z,55.83
2018-10-17T23:21:38.298Z,56.00
2018-10-17T23:24:06.661Z,51.23
2018-10-17T23:26:36.051Z,52.93
2018-10-17T23:29:04.368Z,56.67
2018-10-17T23:31:32.657Z,56.20
2018-10-17T23:34:00.966Z,55.10
2018-10-17T23:36:29.261Z,55.03
2018-10-17T23:38:57.562Z,54.60
2018-10-17T23:41:25.932Z,49.20
2018-10-17T23:43:54.293Z,53.27
2018-10-17T23:46:22.654Z,53.27
2018-10-17T23:48:50.964Z,51.20
2018-10-17T23:51:19.241Z,52.30
2018-10-17T23:53:47.555Z,51.50
2018-10-17T23:56:16.038Z,54.90
2018-10-17T23:58:44.349Z,50.37
